Time;durP1;ratioP1;P1;durP2;ratioP2;P2;SDS_P1;SDS_P2;PMS_P1;PMS_P2;Temp;Humidity;BMP_temperature;BMP_pressure;BME280_temperature;BME280_humidity;BME280_pressure;Samples;Min_cycle;Max_cycle;Signal;HPM_P1;HPM_P2
2021/11/15 00:00:20;;;;;;;;;;;;;;;;;;6252573;23;19923;-90
2021/11/15 00:02:46;;;;;;;;;;;;;;;;;;6252629;23;19924;-90
2021/11/15 00:05:12;;;;;;;;;;;;;;;;;;6253597;23;20392;-91
2021/11/15 00:07:40;;;;;;;;;;;;;;;;;;6253814;23;19954;-90
2021/11/15 00:10:06;;;;;;;;;;;;;;;;;;6253349;23;19971;-90
2021/11/15 00:12:33;;;;;;;;;;;;;;;;;;6253737;23;19950;-90
2021/11/15 00:14:59;;;;;;;;;;;;;;;;;;6254422;23;19924;-90
2021/11/15 00:17:25;;;;;;;;;;;;;;;;;;6254490;23;19931;-91
2021/11/15 00:19:51;;;;;;;;;;;;;;;;;;6254576;23;19954;-90
2021/11/15 00:22:18;;;;;;;;;;;;;;;;;;6254212;23;20420;-91
2021/11/15 00:24:44;;;;;;;;;;;;;;;;;;6251940;23;20396;-91
2021/11/15 00:27:10;;;;;;;;;;;;;;;;;;6253194;23;19996;-91
2021/11/15 00:29:36;;;;;;;;;;;;;;;;;;6255342;23;19943;-90
2021/11/15 00:32:03;;;;;;;;;;;;;;;;;;6254463;23;19923;-91
2021/11/15 00:34:29;;;;;;;;;;;;;;;;;;6254620;23;19924;-90
2021/11/15 00:36:55;;;;;;;;;;;;;;;;;;6254696;23;19954;-91
2021/11/15 00:39:21;;;;;;;;;;;;;;;;;;6253532;23;19924;-88
2021/11/15 00:41:47;;;;;;;;;;;;;;;;;;6253573;23;19923;-88
2021/11/15 00:44:14;;;;;;;;;;;;;;;;;;6253778;23;19927;-89
2021/11/15 00:46:40;;;;;;;;;;;;;;;;;;6253784;23;19924;-89
2021/11/15 00:49:06;;;;;;;;;;;;;;;;;;6253447;23;19920;-90
2021/11/15 00:51:32;;;;;;;;;;;;;;;;;;6253123;23;19943;-90
2021/11/15 00:53:59;;;;;;;;;;;;;;;;;;6251324;23;20671;-90
2021/11/15 00:56:25;;;;;;;;;;;;;;;;;;6249493;23;20713;-91
2021/11/15 00:58:51;;;;;;;;;;;;;;;;;;6251441;23;20311;-90
2021/11/15 01:01:17;;;;;;;;;;;;;;;;;;6252051;23;20013;-90
2021/11/15 01:03:44;;;;;;;;;;;;;;;;;;6254095;23;19924;-89
2021/11/15 01:06:10;;;;;;;;;;;;;;;;;;6254657;23;19928;-89
2021/11/15 01:08:38;;;;;;;;;;;;;;;;;;6253878;23;19924;-89
2021/11/15 01:11:04;;;;;;;;;;;;;;;;;;6252353;23;19924;-90
2021/11/15 01:13:30;;;;;;;;;;;;;;;;;;6251088;23;19924;-91
2021/11/15 01:15:57;;;;;;;;;;;;;;;;;;6253513;23;19923;-91
2021/11/15 01:18:23;;;;;;;;;;;;;;;;;;6253633;23;19924;-90
2021/11/15 01:20:49;;;;;;;;;;;;;;;;;;6253395;23;19928;-89
2021/11/15 01:23:15;;;;;;;;;;;;;;;;;;6252580;23;19973;-90
2021/11/15 01:25:42;;;;;;;;;;;;;;;;;;6251851;23;19924;-90
2021/11/15 01:28:08;;;;;;;;;;;;;;;;;;6252611;23;19928;-90
2021/11/15 01:30:34;;;;;;;;;;;;;;;;;;6252542;23;19923;-90
2021/11/15 01:33:00;;;;;;;;;;;;;;;;;;6252844;23;19944;-90
2021/11/15 01:35:27;;;;;;;;;;;;;;;;;;6253366;23;19920;-90
2021/11/15 01:37:53;;;;;;;;;;;;;;;;;;6251881;23;19920;-89
2021/11/15 01:40:19;;;;;;;;;;;;;;;;;;6250973;23;19924;-90
2021/11/15 01:42:45;;;;;;;;;;;;;;;;;;6250962;23;19923;-89
2021/11/15 01:45:12;;;;;;;;;;;;;;;;;;6252858;23;19923;-89
2021/11/15 01:47:38;;;;;;;;;;;;;;;;;;6252328;23;19923;-89
2021/11/15 01:50:04;;;;;;;;;;;;;;;;;;6251010;23;19973;-90
2021/11/15 01:52:30;;;;;;;;;;;;;;;;;;6252291;23;19919;-89
2021/11/15 01:54:57;;;;;;;;;;;;;;;;;;6252882;23;19921;-90
2021/11/15 01:57:23;;;;;;;;;;;;;;;;;;6252799;23;19924;-89
2021/11/15 01:59:49;;;;;;;;;;;;;;;;;;6253929;23;19927;-90
2021/11/15 02:02:15;;;;;;;;;;;;;;;;;;6253484;23;19989;-89
2021/11/15 02:04:41;;;;;;;;;;;;;;;;;;6253534;23;19924;-90
2021/11/15 02:07:08;;;;;;;;;;;;;;;;;;6253478;23;19920;-89
2021/11/15 02:09:34;;;;;;;;;;;;;;;;;;6252610;23;19927;-90
2021/11/15 02:12:00;;;;;;;;;;;;;;;;;;6253159;23;19927;-90
2021/11/15 02:14:26;;;;;;;;;;;;;;;;;;6253376;23;19927;-91
2021/11/15 02:16:53;;;;;;;;;;;;;;;;;;6253185;23;19924;-90
2021/11/15 02:19:19;;;;;;;;;;;;;;;;;;6249630;23;19919;-90
2021/11/15 02:21:46;;;;;;;;;;;;;;;;;;6250172;23;19923;-90
2021/11/15 02:24:12;;;;;;;;;;;;;;;;;;6251259;23;19950;-90
2021/11/15 02:26:38;;;;;;;;;;;;;;;;;;6250676;23;19919;-90
2021/11/15 02:29:04;;;;;;;;;;;;;;;;;;6249846;23;19980;-90
2021/11/15 02:31:31;;;;;;;;;;;;;;;;;;6249775;23;19943;-90
2021/11/15 02:33:57;;;;;;;;;;;;;;;;;;6253115;23;19919;-90
2021/11/15 02:36:23;;;;;;;;;;;;;;;;;;6252474;23;19927;-90
2021/11/15 02:38:51;;;;;;;;;;;;;;;;;;6251263;23;19923;-90
2021/11/15 02:41:17;;;;;;;;;;;;;;;;;;6251725;23;19963;-89
2021/11/15 02:43:44;;;;;;;;;;;;;;;;;;6251011;23;19923;-90
2021/11/15 02:46:10;;;;;;;;;;;;;;;;;;6251122;23;19920;-90
2021/11/15 02:48:36;;;;;;;;;;;;;;;;;;6251342;23;20342;-90
2021/11/15 02:51:02;;;;;;;;;;;;;;;;;;6251384;23;19923;-90
2021/11/15 02:53:28;;;;;;;;;;;;;;;;;;6253178;23;19986;-90
2021/11/15 02:55:55;;;;;;;;;;;;;;;;;;6252964;23;19974;-90
2021/11/15 02:58:21;;;;;;;;;;;;;;;;;;6252199;23;20053;-91
2021/11/15 03:00:48;;;;;;;;;;;;;;;;;;6251362;23;19969;-90
2021/11/15 03:03:14;;;;;;;;;;;;;;;;;;6251171;23;19934;-89
2021/11/15 03:05:41;;;;;;;;;;;;;;;;;;6251042;23;19923;-90
2021/11/15 03:08:07;;;;;;;;;;;;;;;;;;6252567;23;19931;-90
2021/11/15 03:10:33;;;;;;;;;;;;;;;;;;6253153;23;19923;-90
2021/11/15 03:13:00;;;;;;;;;;;;;;;;;;6251637;23;20312;-90
2021/11/15 03:15:26;;;;;;;;;;;;;;;;;;6251134;23;19927;-90
2021/11/15 03:17:52;;;;;;;;;;;;;;;;;;6251110;23;19989;-90
2021/11/15 03:20:18;;;;;;;;;;;;;;;;;;6251746;23;19919;-91
2021/11/15 03:22:45;;;;;;;;;;;;;;;;;;6252804;23;19964;-91
2021/11/15 03:25:11;;;;;;;;;;;;;;;;;;6253030;23;19923;-90
2021/11/15 03:27:37;;;;;;;;;;;;;;;;;;6252161;23;19947;-89
2021/11/15 03:30:03;;;;;;;;;;;;;;;;;;6251319;23;19929;-90
2021/11/15 03:32:30;;;;;;;;;;;;;;;;;;6250620;23;19941;-90
2021/11/15 03:34:56;;;;;;;;;;;;;;;;;;6249883;23;19950;-91
2021/11/15 03:37:22;;;;;;;;;;;;;;;;;;6251223;23;19946;-90
2021/11/15 03:39:48;;;;;;;;;;;;;;;;;;6253786;23;19954;-92
2021/11/15 03:42:14;;;;;;;;;;;;;;;;;;6255058;23;20418;-91
2021/11/15 03:44:41;;;;;;;;;;;;;;;;;;6253407;23;20304;-90
2021/11/15 03:47:07;;;;;;;;;;;;;;;;;;6253760;23;20049;-91
2021/11/15 03:49:33;;;;;;;;;;;;;;;;;;6255687;23;19919;-90
2021/11/15 03:51:59;;;;;;;;;;;;;;;;;;6254899;23;19920;-90
2021/11/15 03:54:26;;;;;;;;;;;;;;;;;;6251841;23;19920;-90
2021/11/15 03:56:52;;;;;;;;;;;;;;;;;;6251751;23;19923;-90
2021/11/15 03:59:18;;;;;;;;;;;;;;;;;;6255290;23;19923;-90
2021/11/15 04:01:44;;;;;;;;;;;;;;;;;;6254388;23;19927;-91
2021/11/15 04:04:16;;;;;;;;;;;;;;;;;;6254902;23;19919;-91
2021/11/15 04:06:49;;;;;;;;;;;;;;;;;;6254784;23;20269;-91
2021/11/15 04:09:15;;;;;;;;;;;;;;;;;;6254751;23;19927;-91
2021/11/15 04:11:42;;;;;;;;;;;;;;;;;;6254526;23;19920;-91
2021/11/15 04:14:08;;;;;;;;;;;;;;;;;;6253753;23;20247;-90
2021/11/15 04:16:34;;;;;;;;;;;;;;;;;;6253393;23;19961;-90
2021/11/15 04:19:00;;;;;;;;;;;;;;;;;;6253439;23;19993;-92
2021/11/15 04:21:27;;;;;;;;;;;;;;;;;;6253415;23;19978;-90
2021/11/15 04:23:53;;;;;;;;;;;;;;;;;;6252992;23;20019;-91
2021/11/15 04:26:19;;;;;;;;;;;;;;;;;;6252708;23;19954;-90
2021/11/15 04:28:45;;;;;;;;;;;;;;;;;;6253627;23;19920;-91
2021/11/15 04:31:12;;;;;;;;;;;;;;;;;;6253814;23;19920;-91
2021/11/15 04:33:38;;;;;;;;;;;;;;;;;;6253504;23;19923;-91
2021/11/15 04:36:05;;;;;;;;;;;;;;;;;;6254066;23;19920;-91
2021/11/15 04:38:31;;;;;;;;;;;;;;;;;;6253410;23;19946;-92
2021/11/15 04:40:58;;;;;;;;;;;;;;;;;;6253913;23;20487;-92
2021/11/15 04:43:24;;;;;;;;;;;;;;;;;;6253842;23;19934;-92
2021/11/15 04:45:50;;;;;;;;;;;;;;;;;;6254097;23;19993;-91
2021/11/15 04:48:16;;;;;;;;;;;;;;;;;;6255758;23;19923;-91
2021/11/15 04:50:43;;;;;;;;;;;;;;;;;;6256708;23;19923;-92
2021/11/15 04:53:09;;;;;;;;;;;;;;;;;;6253911;23;19924;-95
2021/11/15 04:55:38;;;;;;;;;;;;;;;;;;6263111;23;19947;-96
2021/11/15 04:58:04;;;;;;;;;;;;;;;;;;6228443;23;19959;-90
2021/11/15 05:00:30;;;;;;;;;;;;;;;;;;6254075;23;20281;-91
2021/11/15 05:02:56;;;;;;;;;;;;;;;;;;6253756;23;19932;-90
2021/11/15 05:05:23;;;;;;;;;;;;;;;;;;6254023;23;19928;-90
2021/11/15 05:07:51;;;;;;;;;;;;;;;;;;6253843;23;19970;-91
2021/11/15 05:10:17;;;;;;;;;;;;;;;;;;6253719;23;19927;-92
2021/11/15 05:12:44;;;;;;;;;;;;;;;;;;6253062;23;19923;-93
2021/11/15 05:15:10;;;;;;;;;;;;;;;;;;6251977;23;19947;-92
2021/11/15 05:17:36;;;;;;;;;;;;;;;;;;6252593;23;19962;-92
2021/11/15 05:20:02;;;;;;;;;;;;;;;;;;6254025;23;19919;-92
2021/11/15 05:22:29;;;;;;;;;;;;;;;;;;6254233;23;20401;-91
2021/11/15 05:24:55;;;;;;;;;;;;;;;;;;6252611;23;19949;-90
2021/11/15 05:27:21;;;;;;;;;;;;;;;;;;6252300;23;19923;-92
2021/11/15 05:29:48;;;;;;;;;;;;;;;;;;6252809;23;19973;-92
2021/11/15 05:32:14;;;;;;;;;;;;;;;;;;6253407;23;19923;-92
2021/11/15 05:34:40;;;;;;;;;;;;;;;;;;6254554;23;19946;-91
2021/11/15 05:37:06;;;;;;;;;;;;;;;;;;6253974;23;19930;-92
2021/11/15 05:39:33;;;;;;;;;;;;;;;;;;6253622;23;19923;-93
2021/11/15 05:41:59;;;;;;;;;;;;;;;;;;6253576;23;19924;-91
2021/11/15 05:44:25;;;;;;;;;;;;;;;;;;6253249;23;19982;-93
2021/11/15 05:46:52;;;;;;;;;;;;;;;;;;6254147;23;19942;-93
2021/11/15 05:49:18;;;;;;;;;;;;;;;;;;6254266;23;19946;-92
2021/11/15 05:51:44;;;;;;;;;;;;;;;;;;6254050;23;19920;-93
2021/11/15 05:54:10;;;;;;;;;;;;;;;;;;6251363;23;19924;-91
2021/11/15 05:56:37;;;;;;;;;;;;;;;;;;6250612;23;19946;-92
2021/11/15 05:59:03;;;;;;;;;;;;;;;;;;6252970;23;19943;-91
2021/11/15 06:01:29;;;;;;;;;;;;;;;;;;6252434;23;19946;-92
2021/11/15 06:03:56;;;;;;;;;;;;;;;;;;6252542;23;19919;-92
2021/11/15 06:06:22;;;;;;;;;;;;;;;;;;6252916;23;19927;-92
2021/11/15 06:08:48;;;;;;;;;;;;;;;;;;6252349;23;19978;-93
2021/11/15 06:11:14;;;;;;;;;;;;;;;;;;6251925;23;19928;-93
2021/11/15 06:13:41;;;;;;;;;;;;;;;;;;6252225;23;19950;-93
2021/11/15 06:16:07;;;;;;;;;;;;;;;;;;6251450;23;19928;-91
2021/11/15 06:18:33;;;;;;;;;;;;;;;;;;6253538;23;20400;-91
2021/11/15 06:20:59;;;;;;;;;;;;;;;;;;6253785;23;19928;-91
2021/11/15 06:23:26;;;;;;;;;;;;;;;;;;6256252;23;19977;-91
2021/11/15 06:25:52;;;;;;;;;;;;;;;;;;6253856;23;19923;-91
2021/11/15 06:28:18;;;;;;;;;;;;;;;;;;6250166;23;19920;-92
2021/11/15 06:30:45;;;;;;;;;;;;;;;;;;6250132;23;19923;-91
2021/11/15 06:33:11;;;;;;;;;;;;;;;;;;6253043;23;19923;-92
2021/11/15 06:35:37;;;;;;;;;;;;;;;;;;6252569;23;19927;-91
2021/11/15 06:38:03;;;;;;;;;;;;;;;;;;6252415;23;19923;-92
2021/11/15 06:40:30;;;;;;;;;;;;;;;;;;6252311;23;19981;-91
2021/11/15 06:42:56;;;;;;;;;;;;;;;;;;6251780;23;20002;-91
2021/11/15 06:45:24;;;;;;;;;;;;;;;;;;6251658;23;19950;-93
2021/11/15 06:47:50;;;;;;;;;;;;;;;;;;6251794;23;19947;-91
2021/11/15 06:50:17;;;;;;;;;;;;;;;;;;6252717;23;19942;-91
2021/11/15 06:52:43;;;;;;;;;;;;;;;;;;6252164;23;19919;-91
2021/11/15 06:55:09;;;;;;;;;;;;;;;;;;6253304;23;19919;-90
2021/11/15 06:57:37;;;;;;;;;;;;;;;;;;6252362;23;19942;-92
2021/11/15 07:00:03;;;;;;;;;;;;;;;;;;6249802;23;19923;-91
2021/11/15 07:02:29;;;;;;;;;;;;;;;;;;6250892;23;19977;-91
2021/11/15 07:04:55;;;;;;;;;;;;;;;;;;6251566;23;19978;-91
2021/11/15 07:07:22;;;;;;;;;;;;;;;;;;6250012;23;19942;-89
2021/11/15 07:09:49;;;;;;;;;;;;;;;;;;6242600;23;19950;-90
2021/11/15 07:12:15;;;;;;;;;;;;;;;;;;6248338;23;20401;-90
2021/11/15 07:14:42;;;;;;;;;;;;;;;;;;6253525;23;20329;-89
2021/11/15 07:17:08;;;;;;;;;;;;;;;;;;6252350;23;19952;-90
2021/11/15 07:19:34;;;;;;;;;;;;;;;;;;6253436;23;19923;-89
2021/11/15 07:22:00;;;;;;;;;;;;;;;;;;6254637;23;19924;-90
2021/11/15 07:24:26;;;;;;;;;;;;;;;;;;6255636;23;19946;-91
2021/11/15 07:26:53;;;;;;;;;;;;;;;;;;6253986;23;19956;-90
2021/11/15 07:29:19;;;;;;;;;;;;;;;;;;6253988;23;19924;-90
2021/11/15 07:31:46;;;;;;;;;;;;;;;;;;6254501;23;19923;-90
2021/11/15 07:34:12;;;;;;;;;;;;;;;;;;6253067;23;19946;-90
2021/11/15 07:36:38;;;;;;;;;;;;;;;;;;6252379;23;19931;-90
2021/11/15 07:39:05;;;;;;;;;;;;;;;;;;6252927;23;19927;-90
2021/11/15 07:41:31;;;;;;;;;;;;;;;;;;6252279;23;19924;-91
2021/11/15 07:43:57;;;;;;;;;;;;;;;;;;6251692;23;19923;-90
2021/11/15 07:46:23;;;;;;;;;;;;;;;;;;6251950;23;20816;-91
2021/11/15 07:48:50;;;;;;;;;;;;;;;;;;6254071;23;19973;-89
2021/11/15 07:51:16;;;;;;;;;;;;;;;;;;6254674;23;19974;-90
2021/11/15 07:53:42;;;;;;;;;;;;;;;;;;6255547;23;19919;-92
2021/11/15 07:56:09;;;;;;;;;;;;;;;;;;6252446;23;19920;-89
2021/11/15 07:58:35;;;;;;;;;;;;;;;;;;6253369;23;19924;-90
2021/11/15 08:01:01;;;;;;;;;;;;;;;;;;6253725;23;19927;-89
2021/11/15 08:03:27;;;;;;;;;;;;;;;;;;6252502;23;19928;-89
2021/11/15 08:05:54;;;;;;;;;;;;;;;;;;6251577;23;19924;-89
2021/11/15 08:08:20;;;;;;;;;;;;;;;;;;6252248;23;19978;-88
2021/11/15 08:10:46;;;;;;;;;;;;;;;;;;6251136;23;19923;-88
2021/11/15 08:13:12;;;;;;;;;;;;;;;;;;6253397;23;19924;-89
2021/11/15 08:15:39;;;;;;;;;;;;;;;;;;6253476;23;19928;-88
2021/11/15 08:18:05;;;;;;;;;;;;;;;;;;6254497;23;19919;-88
2021/11/15 08:20:31;;;;;;;;;;;;;;;;;;6254106;23;19919;-89
2021/11/15 08:22:58;;;;;;;;;;;;;;;;;;6254049;23;19927;-91
2021/11/15 08:25:24;;;;;;;;;;;;;;;;;;6252179;23;19928;-91
2021/11/15 08:27:50;;;;;;;;;;;;;;;;;;6251768;23;19943;-90
2021/11/15 08:30:16;;;;;;;;;;;;;;;;;;6250939;23;19950;-91
2021/11/15 08:32:43;;;;;;;;;;;;;;;;;;6253902;23;19954;-93
2021/11/15 08:35:09;;;;;;;;;;;;;;;;;;6252161;23;20442;-91
2021/11/15 08:37:36;;;;;;;;;;;;;;;;;;6253388;23;19927;-91
2021/11/15 08:40:02;;;;;;;;;;;;;;;;;;6254121;23;19928;-90
2021/11/15 08:42:28;;;;;;;;;;;;;;;;;;6253216;23;19947;-92
2021/11/15 08:44:57;;;;;;;;;;;;;;;;;;6254513;23;19920;-91
2021/11/15 08:47:23;;;;;;;;;;;;;;;;;;6253582;23;19927;-90
2021/11/15 08:49:49;;;;;;;;;;;;;;;;;;6254283;23;19923;-93
2021/11/15 08:52:16;;;;;;;;;;;;;;;;;;6256307;23;19919;-90
2021/11/15 08:54:47;;;;;;;;;;;;;;;;;;6256233;23;19951;-93
2021/11/15 08:57:14;;;;;;;;;;;;;;;;;;6259994;23;19943;-92
2021/11/15 08:59:40;;;;;;;;;;;;;;;;;;6256094;23;19929;-91
2021/11/15 09:02:06;;;;;;;;;;;;;;;;;;6257590;23;19946;-91
2021/11/15 09:04:33;;;;;;;;;;;;;;;;;;6259730;23;19907;-94
2021/11/15 09:06:59;;;;;;;;;;;;;;;;;;6259252;23;19930;-94
2021/11/15 09:09:28;;;;;;;;;;;;;;;;;;6257449;23;20816;-92
2021/11/15 09:11:55;;;;;;;;;;;;;;;;;;6254995;23;19929;-94
2021/11/15 09:14:22;;;;;;;;;;;;;;;;;;6255611;23;19920;-92
2021/11/15 09:16:48;;;;;;;;;;;;;;;;;;6259797;23;19923;-95
2021/11/15 09:19:14;;;;;;;;;;;;;;;;;;6260795;23;19926;-92
2021/11/15 09:21:41;;;;;;;;;;;;;;;;;;6262839;23;19925;-93
2021/11/15 09:24:07;;;;;;;;;;;;;;;;;;6259463;23;19919;-93
2021/11/15 09:26:35;;;;;;;;;;;;;;;;;;6253929;23;19923;-92
2021/11/15 09:29:01;;;;;;;;;;;;;;;;;;6255667;23;19919;-91
2021/11/15 09:31:28;;;;;;;;;;;;;;;;;;6258511;23;19923;-94
2021/11/15 09:33:54;;;;;;;;;;;;;;;;;;6261507;23;19923;-95
2021/11/15 09:36:25;;;;;;;;;;;;;;;;;;6236512;23;20426;-96
2021/11/15 09:38:52;;;;;;;;;;;;;;;;;;6260234;23;19934;-92
2021/11/15 09:41:18;;;;;;;;;;;;;;;;;;6259547;23;19979;-92
2021/11/15 09:43:44;;;;;;;;;;;;;;;;;;6260631;23;19923;-93
2021/11/15 09:46:11;;;;;;;;;;;;;;;;;;6258426;23;19920;-96
2021/11/15 09:48:37;;;;;;;;;;;;;;;;;;6262259;23;19972;-94
2021/11/15 09:51:04;;;;;;;;;;;;;;;;;;6265568;23;19915;-94
2021/11/15 09:53:30;;;;;;;;;;;;;;;;;;6261596;23;19971;-95
2021/11/15 09:55:57;;;;;;;;;;;;;;;;;;6260638;23;19920;-93
2021/11/15 09:58:23;;;;;;;;;;;;;;;;;;6265021;23;19923;-96
2021/11/15 10:00:59;;;;;;;;;;;;;;;;;;6260435;23;19987;-96
2021/11/15 10:03:26;;;;;;;;;;;;;;;;;;6261404;23;20590;-94
2021/11/15 10:05:54;;;;;;;;;;;;;;;;;;6257776;23;19923;-95
2021/11/15 10:08:26;;;;;;;;;;;;;;;;;;6262294;23;19986;-96
2021/11/15 10:11:01;;;;;;;;;;;;;;;;;;6257174;23;20289;-95
2021/11/15 10:13:28;;;;;;;;;;;;;;;;;;6255564;23;19996;-94
2021/11/15 10:15:55;;;;;;;;;;;;;;;;;;6257797;23;19931;-94
2021/11/15 10:18:21;;;;;;;;;;;;;;;;;;6258441;23;19931;-93
2021/11/15 10:20:47;;;;;;;;;;;;;;;;;;6255069;23;19923;-94
2021/11/15 10:23:14;;;;;;;;;;;;;;;;;;6255252;23;19930;-95
2021/11/15 10:25:40;;;;;;;;;;;;;;;;;;6258560;23;19926;-96
2021/11/15 10:28:07;;;;;;;;;;;;;;;;;;6255596;23;19938;-94
2021/11/15 10:30:33;;;;;;;;;;;;;;;;;;6253545;23;19923;-94
2021/11/15 10:33:00;;;;;;;;;;;;;;;;;;6253454;23;19954;-95
2021/11/15 10:35:26;;;;;;;;;;;;;;;;;;6256382;23;19923;-96
2021/11/15 10:40:38;;;;;;;;;;;;;;;;;;6249510;23;19931;-94
2021/11/15 10:43:04;;;;;;;;;;;;;;;;;;6257834;23;19920;-95
2021/11/15 10:45:30;;;;;;;;;;;;;;;;;;6258409;23;19907;-93
2021/11/15 10:47:56;;;;;;;;;;;;;;;;;;6257216;23;19955;-95
2021/11/15 10:50:24;;;;;;;;;;;;;;;;;;6257790;23;19924;-93
2021/11/15 10:52:50;;;;;;;;;;;;;;;;;;6254136;23;19931;-92
2021/11/15 10:55:18;;;;;;;;;;;;;;;;;;6256445;23;19924;-94
2021/11/15 10:57:45;;;;;;;;;;;;;;;;;;6256261;23;19920;-95
2021/11/15 11:00:18;;;;;;;;;;;;;;;;;;6258986;23;19930;-96
2021/11/15 11:02:45;;;;;;;;;;;;;;;;;;6255308;23;19968;-95
2021/11/15 11:05:12;;;;;;;;;;;;;;;;;;6257515;23;19923;-96
2021/11/15 11:07:38;;;;;;;;;;;;;;;;;;6254669;23;19930;-95
2021/11/15 11:10:04;;;;;;;;;;;;;;;;;;6254035;23;20403;-94
2021/11/15 11:12:34;;;;;;;;;;;;;;;;;;6256212;23;19920;-94
2021/11/15 11:15:01;;;;;;;;;;;;;;;;;;6260415;23;19920;-95
2021/11/15 11:17:27;;;;;;;;;;;;;;;;;;6260311;23;19924;-94
2021/11/15 11:19:59;;;;;;;;;;;;;;;;;;6266065;23;19907;-95
2021/11/15 11:22:39;;;;;;;;;;;;;;;;;;6259487;23;19929;-95
2021/11/15 11:25:09;;;;;;;;;;;;;;;;;;6256863;23;19923;-95
2021/11/15 11:27:36;;;;;;;;;;;;;;;;;;6255276;23;19929;-96
2021/11/15 11:30:02;;;;;;;;;;;;;;;;;;6256190;23;19919;-96
2021/11/15 11:32:29;;;;;;;;;;;;;;;;;;6259195;23;20561;-95
2021/11/15 11:34:56;;;;;;;;;;;;;;;;;;6254431;23;19944;-95
2021/11/15 11:37:25;;;;;;;;;;;;;;;;;;6256718;23;19928;-95
2021/11/15 11:39:51;;;;;;;;;;;;;;;;;;6254090;23;20525;-93
2021/11/15 11:42:17;;;;;;;;;;;;;;;;;;6253376;23;19919;-94
2021/11/15 11:44:44;;;;;;;;;;;;;;;;;;6255893;23;19923;-93
2021/11/15 11:49:55;;;;;;;;;;;;;;;;;;6191825;22;19919;-96
2021/11/15 11:52:24;;;;;;;;;;;;;;;;;;6253577;22;19916;-96
2021/11/15 11:55:00;;;;;;;;;;;;;;;;;;6251089;22;19926;-96
2021/11/15 11:57:29;;;;;;;;;;;;;;;;;;6261940;23;19968;-96
2021/11/15 11:59:56;;;;;;;;;;;;;;;;;;6258663;23;20006;-96
2021/11/15 12:05:00;;;;;;;;;;;;;;;;;;6253274;22;19923;-95
2021/11/15 12:07:26;;;;;;;;;;;;;;;;;;6256245;23;19930;-95
2021/11/15 12:09:52;;;;;;;;;;;;;;;;;;6229466;23;19920;-96
2021/11/15 12:12:19;;;;;;;;;;;;;;;;;;6255242;23;19950;-94
2021/11/15 12:14:45;;;;;;;;;;;;;;;;;;6259504;23;19928;-92
2021/11/15 12:17:12;;;;;;;;;;;;;;;;;;6257916;23;19924;-95
2021/11/15 12:19:39;;;;;;;;;;;;;;;;;;6265618;23;19926;-96
2021/11/15 12:22:05;;;;;;;;;;;;;;;;;;6262313;23;19927;-96
2021/11/15 12:24:35;;;;;;;;;;;;;;;;;;6261702;22;19934;-96
2021/11/15 12:27:11;;;;;;;;;;;;;;;;;;6263597;23;19963;-95
2021/11/15 12:29:42;;;;;;;;;;;;;;;;;;6262220;23;19946;-96
2021/11/15 12:34:39;;;;;;;;;;;;;;;;;;6238702;23;19923;-95
2021/11/15 12:50:26;;;;;;;;;;;;;;;;;;6214360;22;19984;-95
2021/11/15 12:52:55;;;;;;;;;;;;;;;;;;6256126;23;19942;-96
2021/11/15 12:55:23;;;;;;;;;;;;;;;;;;6258711;23;19923;-94
2021/11/15 12:57:49;;;;;;;;;;;;;;;;;;6257320;23;19936;-92
2021/11/15 13:00:15;;;;;;;;;;;;;;;;;;6254678;23;19920;-93
2021/11/15 13:02:42;;;;;;;;;;;;;;;;;;6252413;23;20362;-94
2021/11/15 13:05:08;;;;;;;;;;;;;;;;;;6250457;23;19977;-93
2021/11/15 13:07:34;;;;;;;;;;;;;;;;;;6252448;23;19919;-93
2021/11/15 13:10:01;;;;;;;;;;;;;;;;;;6255173;23;19920;-94
2021/11/15 13:12:27;;;;;;;;;;;;;;;;;;6250686;23;20022;-95
2021/11/15 13:14:54;;;;;;;;;;;;;;;;;;6255459;23;19928;-94
2021/11/15 13:17:22;;;;;;;;;;;;;;;;;;6253383;23;20234;-93
2021/11/15 13:19:48;;;;;;;;;;;;;;;;;;6251768;23;19920;-92
2021/11/15 13:22:14;;;;;;;;;;;;;;;;;;6252306;23;19930;-92
2021/11/15 13:24:44;;;;;;;;;;;;;;;;;;6251827;23;19927;-93
2021/11/15 13:27:10;;;;;;;;;;;;;;;;;;6252300;23;19943;-92
2021/11/15 13:29:38;;;;;;;;;;;;;;;;;;6253947;23;19930;-92
2021/11/15 13:32:04;;;;;;;;;;;;;;;;;;6253514;23;19923;-93
2021/11/15 13:34:30;;;;;;;;;;;;;;;;;;6253129;23;20296;-92
2021/11/15 13:36:57;;;;;;;;;;;;;;;;;;6254342;23;19943;-92
2021/11/15 13:39:23;;;;;;;;;;;;;;;;;;6256356;23;19930;-92
2021/11/15 13:41:49;;;;;;;;;;;;;;;;;;6256443;23;19920;-94
2021/11/15 13:44:17;;;;;;;;;;;;;;;;;;6263946;23;19924;-94
2021/11/15 13:46:43;;;;;;;;;;;;;;;;;;6262215;23;19929;-93
2021/11/15 13:49:10;;;;;;;;;;;;;;;;;;6253527;23;20380;-93
2021/11/15 13:51:36;;;;;;;;;;;;;;;;;;6253430;23;19938;-92
2021/11/15 13:54:02;;;;;;;;;;;;;;;;;;6254086;23;19935;-91
2021/11/15 13:56:29;;;;;;;;;;;;;;;;;;6254124;23;19924;-93
2021/11/15 13:58:55;;;;;;;;;;;;;;;;;;6252541;23;19919;-93
2021/11/15 14:01:21;;;;;;;;;;;;;;;;;;6251726;23;19924;-93
2021/11/15 14:03:48;;;;;;;;;;;;;;;;;;6252900;23;19924;-92
2021/11/15 14:06:14;;;;;;;;;;;;;;;;;;6253870;23;20404;-93
2021/11/15 14:08:40;;;;;;;;;;;;;;;;;;6253090;23;19923;-92
2021/11/15 14:11:06;;;;;;;;;;;;;;;;;;6252945;23;19924;-92
2021/11/15 14:13:33;;;;;;;;;;;;;;;;;;6253657;23;19974;-92
2021/11/15 14:15:59;;;;;;;;;;;;;;;;;;6253866;23;19927;-92
2021/11/15 14:18:25;;;;;;;;;;;;;;;;;;6253669;23;19932;-91
2021/11/15 14:20:52;;;;;;;;;;;;;;;;;;6253293;23;19927;-92
2021/11/15 14:23:18;;;;;;;;;;;;;;;;;;6253630;23;19946;-93
2021/11/15 14:25:44;;;;;;;;;;;;;;;;;;6254182;23;19923;-93
2021/11/15 14:28:11;;;;;;;;;;;;;;;;;;6253936;23;19981;-92
2021/11/15 14:30:37;;;;;;;;;;;;;;;;;;6251165;23;19923;-93
2021/11/15 14:33:03;;;;;;;;;;;;;;;;;;6251997;23;19919;-93
2021/11/15 14:35:30;;;;;;;;;;;;;;;;;;6255626;23;19930;-94
2021/11/15 14:37:56;;;;;;;;;;;;;;;;;;6254569;23;19923;-95
2021/11/15 14:40:24;;;;;;;;;;;;;;;;;;6257168;23;19934;-94
2021/11/15 14:42:53;;;;;;;;;;;;;;;;;;6262354;23;19920;-96
2021/11/15 14:45:20;;;;;;;;;;;;;;;;;;6260744;23;19964;-94
2021/11/15 14:47:46;;;;;;;;;;;;;;;;;;6251362;23;20249;-94
2021/11/15 14:50:12;;;;;;;;;;;;;;;;;;6250788;23;19924;-93
2021/11/15 14:52:39;;;;;;;;;;;;;;;;;;6252933;23;19924;-93
2021/11/15 14:55:05;;;;;;;;;;;;;;;;;;6251172;23;19923;-92
2021/11/15 14:57:31;;;;;;;;;;;;;;;;;;6250894;23;19954;-91
2021/11/15 14:59:58;;;;;;;;;;;;;;;;;;6254745;23;20715;-93
2021/11/15 15:02:24;;;;;;;;;;;;;;;;;;6253891;23;19927;-92
2021/11/15 15:04:51;;;;;;;;;;;;;;;;;;6253101;23;19926;-93
2021/11/15 15:07:17;;;;;;;;;;;;;;;;;;6252947;23;19983;-94
2021/11/15 15:09:44;;;;;;;;;;;;;;;;;;6250758;23;20497;-92
2021/11/15 15:12:11;;;;;;;;;;;;;;;;;;6250704;23;19931;-93
2021/11/15 15:14:37;;;;;;;;;;;;;;;;;;6253229;23;19970;-94
2021/11/15 15:17:05;;;;;;;;;;;;;;;;;;6252999;23;19975;-92
2021/11/15 15:19:32;;;;;;;;;;;;;;;;;;6252140;23;19971;-92
2021/11/15 15:21:58;;;;;;;;;;;;;;;;;;6252380;23;19938;-94
2021/11/15 15:24:25;;;;;;;;;;;;;;;;;;6253401;23;19923;-93
2021/11/15 15:26:52;;;;;;;;;;;;;;;;;;6252744;23;19924;-94
2021/11/15 15:29:18;;;;;;;;;;;;;;;;;;6261482;23;19924;-94
2021/11/15 15:31:45;;;;;;;;;;;;;;;;;;6255928;23;19919;-96
2021/11/15 15:34:12;;;;;;;;;;;;;;;;;;6253256;23;19930;-96
2021/11/15 15:36:38;;;;;;;;;;;;;;;;;;6259926;23;20349;-94
2021/11/15 15:39:04;;;;;;;;;;;;;;;;;;6254539;23;19919;-93
2021/11/15 15:41:31;;;;;;;;;;;;;;;;;;6257358;23;19926;-95
2021/11/15 15:43:58;;;;;;;;;;;;;;;;;;6255956;23;19972;-94
2021/11/15 15:51:37;;;;;;;;;;;;;;;;;;6207802;22;19916;-95
2021/11/15 15:54:03;;;;;;;;;;;;;;;;;;6258109;23;19923;-95
2021/11/15 15:56:31;;;;;;;;;;;;;;;;;;6259402;23;19927;-95
2021/11/15 16:07:31;;;;;;;;;;;;;;;;;;6266103;23;19923;-96
2021/11/15 16:10:10;;;;;;;;;;;;;;;;;;6272865;22;19907;-96
2021/11/15 16:13:01;;;;;;;;;;;;;;;;;;6267758;22;19958;-96
2021/11/15 16:15:55;;;;;;;;;;;;;;;;;;6261229;23;19923;-96
2021/11/15 16:18:22;;;;;;;;;;;;;;;;;;6263142;23;19915;-93
2021/11/15 16:20:48;;;;;;;;;;;;;;;;;;6255316;23;20385;-94
2021/11/15 16:23:14;;;;;;;;;;;;;;;;;;6256158;23;19929;-94
2021/11/15 16:25:41;;;;;;;;;;;;;;;;;;6258280;23;19926;-94
2021/11/15 16:28:08;;;;;;;;;;;;;;;;;;6260980;23;19924;-95
2021/11/15 16:30:35;;;;;;;;;;;;;;;;;;6261311;23;19974;-94
2021/11/15 16:33:01;;;;;;;;;;;;;;;;;;6262938;23;19924;-94
2021/11/15 16:35:28;;;;;;;;;;;;;;;;;;6259047;23;20413;-94
2021/11/15 16:37:54;;;;;;;;;;;;;;;;;;6265675;23;19995;-94
2021/11/15 16:40:21;;;;;;;;;;;;;;;;;;6262034;23;19920;-94
2021/11/15 16:42:47;;;;;;;;;;;;;;;;;;6258116;23;19919;-91
2021/11/15 16:45:14;;;;;;;;;;;;;;;;;;6262164;23;19924;-95
2021/11/15 16:47:40;;;;;;;;;;;;;;;;;;6265179;23;19920;-93
2021/11/15 16:50:07;;;;;;;;;;;;;;;;;;6256636;23;19945;-93
2021/11/15 16:52:33;;;;;;;;;;;;;;;;;;6255980;23;19934;-92
2021/11/15 16:55:01;;;;;;;;;;;;;;;;;;6257500;23;19923;-93
2021/11/15 16:57:28;;;;;;;;;;;;;;;;;;6255936;23;20093;-92
2021/11/15 16:59:55;;;;;;;;;;;;;;;;;;6258391;23;19916;-94
2021/11/15 17:02:24;;;;;;;;;;;;;;;;;;6257540;23;19930;-93
2021/11/15 17:04:50;;;;;;;;;;;;;;;;;;6258905;23;20398;-91
2021/11/15 17:07:17;;;;;;;;;;;;;;;;;;6260044;23;19931;-95
2021/11/15 17:09:45;;;;;;;;;;;;;;;;;;6264312;23;19928;-92
2021/11/15 17:12:11;;;;;;;;;;;;;;;;;;6234125;23;19920;-91
2021/11/15 17:14:40;;;;;;;;;;;;;;;;;;6256095;23;19920;-95
2021/11/15 17:17:06;;;;;;;;;;;;;;;;;;6229324;23;19931;-95
2021/11/15 17:19:38;;;;;;;;;;;;;;;;;;6256251;23;19919;-92